sensor_id;sensor_type;location;lat;lon;timestamp;P1;durP1;ratioP1;P2;durP2;ratioP2
11653;SDS011;5883;48.818;9.114;2022-11-15T00:00:03;2.60;;;1.98;;
11653;SDS011;5883;48.818;9.114;2022-11-15T00:02:31;3.70;;;1.80;;
11653;SDS011;5883;48.818;9.114;2022-11-15T00:04:58;3.22;;;2.00;;
11653;SDS011;5883;48.818;9.114;2022-11-15T00:07:24;3.17;;;2.00;;
11653;SDS011;5883;48.818;9.114;2022-11-15T00:09:51;2.50;;;2.03;;
11653;SDS011;5883;48.818;9.114;2022-11-15T00:12:17;3.42;;;1.90;;
11653;SDS011;5883;48.818;9.114;2022-11-15T00:14:44;2.17;;;1.77;;
11653;SDS011;5883;48.818;9.114;2022-11-15T00:17:10;3.15;;;2.08;;
11653;SDS011;5883;48.818;9.114;2022-11-15T00:19:38;2.10;;;1.88;;
11653;SDS011;5883;48.818;9.114;2022-11-15T00:22:05;3.50;;;2.13;;
11653;SDS011;5883;48.818;9.114;2022-11-15T00:24:31;6.38;;;2.40;;
11653;SDS011;5883;48.818;9.114;2022-11-15T00:26:57;2.08;;;1.75;;
11653;SDS011;5883;48.818;9.114;2022-11-15T00:29:24;3.65;;;2.00;;
11653;SDS011;5883;48.818;9.114;2022-11-15T00:31:50;3.60;;;2.05;;
11653;SDS011;5883;48.818;9.114;2022-11-15T00:34:17;6.70;;;2.20;;
11653;SDS011;5883;48.818;9.114;2022-11-15T00:36:45;2.17;;;1.70;;
11653;SDS011;5883;48.818;9.114;2022-11-15T00:39:11;3.17;;;2.10;;
11653;SDS011;5883;48.818;9.114;2022-11-15T00:41:38;3.08;;;2.00;;
11653;SDS011;5883;48.818;9.114;2022-11-15T00:44:04;2.55;;;1.90;;
11653;SDS011;5883;48.818;9.114;2022-11-15T00:46:31;2.58;;;2.10;;
11653;SDS011;5883;48.818;9.114;2022-11-15T00:48:58;4.35;;;1.90;;
11653;SDS011;5883;48.818;9.114;2022-11-15T00:51:25;3.00;;;1.92;;
11653;SDS011;5883;48.818;9.114;2022-11-15T00:53:52;2.20;;;2.00;;
11653;SDS011;5883;48.818;9.114;2022-11-15T00:56:19;4.07;;;2.00;;
11653;SDS011;5883;48.818;9.114;2022-11-15T00:58:45;2.83;;;1.92;;
11653;SDS011;5883;48.818;9.114;2022-11-15T01:01:13;3.55;;;2.20;;
11653;SDS011;5883;48.818;9.114;2022-11-15T01:03:40;3.80;;;2.00;;
11653;SDS011;5883;48.818;9.114;2022-11-15T01:06:07;4.25;;;1.70;;
11653;SDS011;5883;48.818;9.114;2022-11-15T01:08:33;3.63;;;2.00;;
11653;SDS011;5883;48.818;9.114;2022-11-15T01:11:02;3.60;;;1.80;;
11653;SDS011;5883;48.818;9.114;2022-11-15T01:13:32;4.32;;;2.05;;
11653;SDS011;5883;48.818;9.114;2022-11-15T01:15:59;2.40;;;1.90;;
11653;SDS011;5883;48.818;9.114;2022-11-15T01:18:25;2.00;;;1.80;;
11653;SDS011;5883;48.818;9.114;2022-11-15T01:20:52;3.58;;;2.42;;
11653;SDS011;5883;48.818;9.114;2022-11-15T01:23:18;3.88;;;2.10;;
11653;SDS011;5883;48.818;9.114;2022-11-15T01:25:45;3.75;;;2.15;;
11653;SDS011;5883;48.818;9.114;2022-11-15T01:28:12;5.35;;;2.35;;
11653;SDS011;5883;48.818;9.114;2022-11-15T01:30:39;5.78;;;2.70;;
11653;SDS011;5883;48.818;9.114;2022-11-15T01:33:05;3.22;;;2.00;;
11653;SDS011;5883;48.818;9.114;2022-11-15T01:35:32;4.13;;;2.20;;
11653;SDS011;5883;48.818;9.114;2022-11-15T01:38:01;2.10;;;1.90;;
11653;SDS011;5883;48.818;9.114;2022-11-15T01:40:28;3.40;;;1.98;;
11653;SDS011;5883;48.818;9.114;2022-11-15T01:42:54;3.05;;;2.08;;
11653;SDS011;5883;48.818;9.114;2022-11-15T01:45:22;5.30;;;2.10;;
11653;SDS011;5883;48.818;9.114;2022-11-15T01:47:50;2.55;;;1.98;;
11653;SDS011;5883;48.818;9.114;2022-11-15T01:50:19;2.38;;;1.83;;
11653;SDS011;5883;48.818;9.114;2022-11-15T01:52:46;5.88;;;2.10;;
11653;SDS011;5883;48.818;9.114;2022-11-15T01:55:13;5.95;;;2.42;;
11653;SDS011;5883;48.818;9.114;2022-11-15T01:57:41;2.42;;;2.00;;
11653;SDS011;5883;48.818;9.114;2022-11-15T02:00:08;2.38;;;1.80;;
11653;SDS011;5883;48.818;9.114;2022-11-15T02:02:36;3.65;;;2.25;;
11653;SDS011;5883;48.818;9.114;2022-11-15T02:05:04;3.50;;;2.35;;
11653;SDS011;5883;48.818;9.114;2022-11-15T02:07:31;2.63;;;2.10;;
11653;SDS011;5883;48.818;9.114;2022-11-15T02:09:58;3.70;;;2.10;;
11653;SDS011;5883;48.818;9.114;2022-11-15T02:12:26;4.90;;;1.77;;
11653;SDS011;5883;48.818;9.114;2022-11-15T02:14:53;3.33;;;1.98;;
11653;SDS011;5883;48.818;9.114;2022-11-15T02:17:26;4.85;;;2.10;;
11653;SDS011;5883;48.818;9.114;2022-11-15T02:20:13;1.90;;;1.70;;
11653;SDS011;5883;48.818;9.114;2022-11-15T02:22:45;4.75;;;1.80;;
11653;SDS011;5883;48.818;9.114;2022-11-15T02:25:23;2.58;;;1.92;;
11653;SDS011;5883;48.818;9.114;2022-11-15T02:30:51;2.42;;;1.90;;
11653;SDS011;5883;48.818;9.114;2022-11-15T02:33:24;2.42;;;2.00;;
11653;SDS011;5883;48.818;9.114;2022-11-15T02:35:57;4.72;;;2.35;;
11653;SDS011;5883;48.818;9.114;2022-11-15T02:38:25;3.58;;;2.10;;
11653;SDS011;5883;48.818;9.114;2022-11-15T02:40:56;2.97;;;1.95;;
11653;SDS011;5883;48.818;9.114;2022-11-15T02:43:25;4.85;;;2.30;;
11653;SDS011;5883;48.818;9.114;2022-11-15T02:46:14;5.78;;;2.97;;
11653;SDS011;5883;48.818;9.114;2022-11-15T02:48:42;3.33;;;2.58;;
11653;SDS011;5883;48.818;9.114;2022-11-15T02:51:09;7.93;;;3.42;;
11653;SDS011;5883;48.818;9.114;2022-11-15T02:53:36;5.78;;;3.40;;
11653;SDS011;5883;48.818;9.114;2022-11-15T02:56:03;4.72;;;3.80;;
11653;SDS011;5883;48.818;9.114;2022-11-15T02:58:47;5.75;;;3.50;;
11653;SDS011;5883;48.818;9.114;2022-11-15T03:01:18;6.15;;;2.95;;
11653;SDS011;5883;48.818;9.114;2022-11-15T03:03:50;4.50;;;2.92;;
11653;SDS011;5883;48.818;9.114;2022-11-15T03:06:20;4.32;;;2.97;;
11653;SDS011;5883;48.818;9.114;2022-11-15T03:08:51;3.20;;;2.88;;
11653;SDS011;5883;48.818;9.114;2022-11-15T03:11:20;4.97;;;2.55;;
11653;SDS011;5883;48.818;9.114;2022-11-15T03:13:48;3.22;;;2.42;;
11653;SDS011;5883;48.818;9.114;2022-11-15T03:16:21;3.50;;;2.80;;
11653;SDS011;5883;48.818;9.114;2022-11-15T03:18:52;4.93;;;2.60;;
11653;SDS011;5883;48.818;9.114;2022-11-15T03:21:20;3.67;;;2.63;;
11653;SDS011;5883;48.818;9.114;2022-11-15T03:23:47;3.30;;;2.70;;
11653;SDS011;5883;48.818;9.114;2022-11-15T03:26:15;3.33;;;2.50;;
11653;SDS011;5883;48.818;9.114;2022-11-15T03:28:43;2.53;;;2.30;;
11653;SDS011;5883;48.818;9.114;2022-11-15T03:31:10;3.03;;;2.45;;
11653;SDS011;5883;48.818;9.114;2022-11-15T03:33:53;2.30;;;2.00;;
11653;SDS011;5883;48.818;9.114;2022-11-15T03:36:21;2.70;;;2.08;;
11653;SDS011;5883;48.818;9.114;2022-11-15T03:38:48;2.55;;;1.92;;
11653;SDS011;5883;48.818;9.114;2022-11-15T03:41:15;3.30;;;1.95;;
11653;SDS011;5883;48.818;9.114;2022-11-15T03:43:44;2.03;;;1.90;;
11653;SDS011;5883;48.818;9.114;2022-11-15T03:46:14;1.85;;;1.70;;
11653;SDS011;5883;48.818;9.114;2022-11-15T03:48:42;2.42;;;1.90;;
11653;SDS011;5883;48.818;9.114;2022-11-15T03:51:11;4.63;;;1.85;;
11653;SDS011;5883;48.818;9.114;2022-11-15T03:53:37;3.13;;;2.00;;
11653;SDS011;5883;48.818;9.114;2022-11-15T03:56:04;2.30;;;2.00;;
11653;SDS011;5883;48.818;9.114;2022-11-15T03:58:30;3.83;;;1.75;;
11653;SDS011;5883;48.818;9.114;2022-11-15T04:00:57;2.85;;;1.85;;
11653;SDS011;5883;48.818;9.114;2022-11-15T04:03:28;4.10;;;2.10;;
11653;SDS011;5883;48.818;9.114;2022-11-15T04:05:54;2.53;;;2.05;;
11653;SDS011;5883;48.818;9.114;2022-11-15T04:08:22;2.85;;;2.17;;
11653;SDS011;5883;48.818;9.114;2022-11-15T04:10:49;5.13;;;2.10;;
11653;SDS011;5883;48.818;9.114;2022-11-15T04:13:15;4.78;;;2.40;;
11653;SDS011;5883;48.818;9.114;2022-11-15T04:15:42;3.08;;;2.08;;
11653;SDS011;5883;48.818;9.114;2022-11-15T04:18:08;2.80;;;2.05;;
11653;SDS011;5883;48.818;9.114;2022-11-15T04:20:35;2.08;;;1.70;;
11653;SDS011;5883;48.818;9.114;2022-11-15T04:23:19;6.30;;;2.42;;
11653;SDS011;5883;48.818;9.114;2022-11-15T04:26:05;2.20;;;2.00;;
11653;SDS011;5883;48.818;9.114;2022-11-15T04:28:33;3.50;;;1.90;;
11653;SDS011;5883;48.818;9.114;2022-11-15T04:30:59;4.53;;;2.13;;
11653;SDS011;5883;48.818;9.114;2022-11-15T04:33:26;3.17;;;2.17;;
11653;SDS011;5883;48.818;9.114;2022-11-15T04:35:52;2.72;;;2.00;;
11653;SDS011;5883;48.818;9.114;2022-11-15T04:38:37;3.25;;;1.98;;
11653;SDS011;5883;48.818;9.114;2022-11-15T04:41:05;2.83;;;1.83;;
11653;SDS011;5883;48.818;9.114;2022-11-15T04:43:31;2.28;;;2.08;;
11653;SDS011;5883;48.818;9.114;2022-11-15T04:45:58;2.88;;;2.20;;
11653;SDS011;5883;48.818;9.114;2022-11-15T04:48:24;4.10;;;1.80;;
11653;SDS011;5883;48.818;9.114;2022-11-15T04:50:51;2.30;;;1.73;;
11653;SDS011;5883;48.818;9.114;2022-11-15T04:53:17;2.13;;;1.80;;
11653;SDS011;5883;48.818;9.114;2022-11-15T04:55:44;1.73;;;1.60;;
11653;SDS011;5883;48.818;9.114;2022-11-15T04:58:12;1.90;;;1.70;;
11653;SDS011;5883;48.818;9.114;2022-11-15T05:00:38;2.90;;;2.00;;
11653;SDS011;5883;48.818;9.114;2022-11-15T05:03:05;2.03;;;1.70;;
11653;SDS011;5883;48.818;9.114;2022-11-15T05:05:49;2.97;;;1.88;;
11653;SDS011;5883;48.818;9.114;2022-11-15T05:08:16;3.60;;;1.90;;
11653;SDS011;5883;48.818;9.114;2022-11-15T05:10:42;2.97;;;1.88;;
11653;SDS011;5883;48.818;9.114;2022-11-15T05:13:09;3.55;;;2.10;;
11653;SDS011;5883;48.818;9.114;2022-11-15T05:15:37;4.47;;;2.25;;
11653;SDS011;5883;48.818;9.114;2022-11-15T05:18:03;2.88;;;1.95;;
11653;SDS011;5883;48.818;9.114;2022-11-15T05:20:30;2.58;;;1.70;;
11653;SDS011;5883;48.818;9.114;2022-11-15T05:22:56;4.10;;;1.80;;
11653;SDS011;5883;48.818;9.114;2022-11-15T05:25:29;3.17;;;2.00;;
11653;SDS011;5883;48.818;9.114;2022-11-15T05:27:56;1.88;;;1.45;;
11653;SDS011;5883;48.818;9.114;2022-11-15T05:30:22;3.13;;;1.50;;
11653;SDS011;5883;48.818;9.114;2022-11-15T05:32:50;3.28;;;1.92;;
11653;SDS011;5883;48.818;9.114;2022-11-15T05:35:18;2.85;;;1.70;;
11653;SDS011;5883;48.818;9.114;2022-11-15T05:37:46;2.58;;;1.80;;
11653;SDS011;5883;48.818;9.114;2022-11-15T05:40:12;3.20;;;1.60;;
11653;SDS011;5883;48.818;9.114;2022-11-15T05:42:39;2.63;;;1.63;;
11653;SDS011;5883;48.818;9.114;2022-11-15T05:45:06;2.80;;;1.73;;
11653;SDS011;5883;48.818;9.114;2022-11-15T05:47:33;2.78;;;1.95;;
11653;SDS011;5883;48.818;9.114;2022-11-15T05:50:02;2.90;;;1.80;;
11653;SDS011;5883;48.818;9.114;2022-11-15T05:52:29;2.60;;;1.80;;
11653;SDS011;5883;48.818;9.114;2022-11-15T05:54:57;3.60;;;1.67;;
11653;SDS011;5883;48.818;9.114;2022-11-15T05:57:24;4.45;;;1.92;;
11653;SDS011;5883;48.818;9.114;2022-11-15T05:59:50;2.22;;;1.60;;
11653;SDS011;5883;48.818;9.114;2022-11-15T06:02:17;3.97;;;1.90;;
11653;SDS011;5883;48.818;9.114;2022-11-15T06:04:44;2.75;;;1.65;;
11653;SDS011;5883;48.818;9.114;2022-11-15T06:07:11;2.33;;;2.03;;
11653;SDS011;5883;48.818;9.114;2022-11-15T06:09:38;2.15;;;1.85;;
11653;SDS011;5883;48.818;9.114;2022-11-15T06:12:05;3.85;;;2.03;;
11653;SDS011;5883;48.818;9.114;2022-11-15T06:14:31;1.75;;;1.65;;
11653;SDS011;5883;48.818;9.114;2022-11-15T06:16:58;2.13;;;1.85;;
11653;SDS011;5883;48.818;9.114;2022-11-15T06:19:24;1.95;;;1.77;;
11653;SDS011;5883;48.818;9.114;2022-11-15T06:21:51;1.60;;;1.50;;
11653;SDS011;5883;48.818;9.114;2022-11-15T06:24:19;3.60;;;1.73;;
11653;SDS011;5883;48.818;9.114;2022-11-15T06:26:45;3.47;;;2.10;;
11653;SDS011;5883;48.818;9.114;2022-11-15T06:29:12;3.17;;;2.03;;
11653;SDS011;5883;48.818;9.114;2022-11-15T06:31:38;2.45;;;1.83;;
11653;SDS011;5883;48.818;9.114;2022-11-15T06:34:04;3.60;;;1.88;;
11653;SDS011;5883;48.818;9.114;2022-11-15T06:36:31;3.40;;;1.80;;
11653;SDS011;5883;48.818;9.114;2022-11-15T06:39:00;2.85;;;2.13;;
11653;SDS011;5883;48.818;9.114;2022-11-15T06:41:28;3.95;;;2.05;;
11653;SDS011;5883;48.818;9.114;2022-11-15T06:43:54;2.75;;;1.83;;
11653;SDS011;5883;48.818;9.114;2022-11-15T06:46:21;2.60;;;1.90;;
11653;SDS011;5883;48.818;9.114;2022-11-15T06:48:49;2.08;;;1.85;;
11653;SDS011;5883;48.818;9.114;2022-11-15T06:51:16;2.55;;;1.75;;
11653;SDS011;5883;48.818;9.114;2022-11-15T06:53:45;2.83;;;2.10;;
11653;SDS011;5883;48.818;9.114;2022-11-15T06:56:12;2.10;;;1.90;;
11653;SDS011;5883;48.818;9.114;2022-11-15T06:58:40;1.80;;;1.70;;
11653;SDS011;5883;48.818;9.114;2022-11-15T07:01:07;5.70;;;2.58;;
11653;SDS011;5883;48.818;9.114;2022-11-15T07:03:35;3.72;;;1.73;;
11653;SDS011;5883;48.818;9.114;2022-11-15T07:06:02;3.03;;;2.13;;
11653;SDS011;5883;48.818;9.114;2022-11-15T07:08:28;4.43;;;1.80;;
11653;SDS011;5883;48.818;9.114;2022-11-15T07:10:57;2.15;;;1.80;;
11653;SDS011;5883;48.818;9.114;2022-11-15T07:13:24;3.30;;;1.70;;
11653;SDS011;5883;48.818;9.114;2022-11-15T07:15:52;2.40;;;1.63;;
11653;SDS011;5883;48.818;9.114;2022-11-15T07:18:18;3.30;;;1.95;;
11653;SDS011;5883;48.818;9.114;2022-11-15T07:20:45;2.92;;;1.98;;
11653;SDS011;5883;48.818;9.114;2022-11-15T07:23:11;23.30;;;13.80;;
11653;SDS011;5883;48.818;9.114;2022-11-15T07:25:38;21.88;;;16.67;;
11653;SDS011;5883;48.818;9.114;2022-11-15T07:28:04;19.08;;;15.23;;
11653;SDS011;5883;48.818;9.114;2022-11-15T07:30:31;6.47;;;5.60;;
11653;SDS011;5883;48.818;9.114;2022-11-15T07:32:59;4.45;;;2.63;;
11653;SDS011;5883;48.818;9.114;2022-11-15T07:35:26;3.65;;;1.92;;
11653;SDS011;5883;48.818;9.114;2022-11-15T07:37:54;3.33;;;2.03;;
11653;SDS011;5883;48.818;9.114;2022-11-15T07:40:21;4.10;;;1.75;;
11653;SDS011;5883;48.818;9.114;2022-11-15T07:42:47;3.50;;;2.03;;
11653;SDS011;5883;48.818;9.114;2022-11-15T07:45:21;2.80;;;1.60;;
11653;SDS011;5883;48.818;9.114;2022-11-15T07:47:48;2.38;;;2.13;;
11653;SDS011;5883;48.818;9.114;2022-11-15T07:50:16;3.92;;;2.33;;
11653;SDS011;5883;48.818;9.114;2022-11-15T07:52:43;3.60;;;1.92;;
11653;SDS011;5883;48.818;9.114;2022-11-15T07:55:10;2.92;;;2.00;;
11653;SDS011;5883;48.818;9.114;2022-11-15T07:57:36;2.20;;;1.77;;
11653;SDS011;5883;48.818;9.114;2022-11-15T08:00:04;1.98;;;1.73;;
11653;SDS011;5883;48.818;9.114;2022-11-15T08:02:31;5.35;;;2.20;;
11653;SDS011;5883;48.818;9.114;2022-11-15T08:04:57;1.85;;;1.60;;
11653;SDS011;5883;48.818;9.114;2022-11-15T08:07:26;3.40;;;2.03;;
11653;SDS011;5883;48.818;9.114;2022-11-15T08:09:54;2.50;;;1.70;;
11653;SDS011;5883;48.818;9.114;2022-11-15T08:12:21;2.78;;;1.80;;
11653;SDS011;5883;48.818;9.114;2022-11-15T08:14:47;2.72;;;1.88;;
11653;SDS011;5883;48.818;9.114;2022-11-15T08:17:14;2.22;;;1.65;;
11653;SDS011;5883;48.818;9.114;2022-11-15T08:19:40;3.13;;;1.80;;
11653;SDS011;5883;48.818;9.114;2022-11-15T08:22:07;4.47;;;2.03;;
11653;SDS011;5883;48.818;9.114;2022-11-15T08:24:35;2.08;;;1.60;;
11653;SDS011;5883;48.818;9.114;2022-11-15T08:27:01;3.90;;;1.90;;
11653;SDS011;5883;48.818;9.114;2022-11-15T08:29:28;3.70;;;1.85;;
11653;SDS011;5883;48.818;9.114;2022-11-15T08:31:54;2.17;;;1.65;;
11653;SDS011;5883;48.818;9.114;2022-11-15T08:34:21;3.67;;;1.75;;
11653;SDS011;5883;48.818;9.114;2022-11-15T08:36:48;1.42;;;1.30;;
11653;SDS011;5883;48.818;9.114;2022-11-15T08:39:17;1.88;;;1.70;;
11653;SDS011;5883;48.818;9.114;2022-11-15T08:41:45;2.22;;;1.58;;
11653;SDS011;5883;48.818;9.114;2022-11-15T08:44:12;2.80;;;1.63;;
11653;SDS011;5883;48.818;9.114;2022-11-15T08:46:38;2.50;;;1.50;;
11653;SDS011;5883;48.818;9.114;2022-11-15T08:49:05;1.98;;;1.70;;
11653;SDS011;5883;48.818;9.114;2022-11-15T08:51:31;3.67;;;1.70;;
11653;SDS011;5883;48.818;9.114;2022-11-15T08:53:58;1.70;;;1.48;;
11653;SDS011;5883;48.818;9.114;2022-11-15T08:56:25;1.40;;;1.30;;
11653;SDS011;5883;48.818;9.114;2022-11-15T08:58:52;2.67;;;1.70;;
11653;SDS011;5883;48.818;9.114;2022-11-15T09:01:19;3.03;;;1.83;;
11653;SDS011;5883;48.818;9.114;2022-11-15T09:03:46;2.15;;;1.70;;
11653;SDS011;5883;48.818;9.114;2022-11-15T09:06:15;3.10;;;1.73;;
11653;SDS011;5883;48.818;9.114;2022-11-15T09:08:42;5.65;;;1.48;;
11653;SDS011;5883;48.818;9.114;2022-11-15T09:11:09;2.55;;;1.30;;
11653;SDS011;5883;48.818;9.114;2022-11-15T09:13:36;2.75;;;1.40;;
11653;SDS011;5883;48.818;9.114;2022-11-15T09:16:05;2.67;;;1.60;;
11653;SDS011;5883;48.818;9.114;2022-11-15T09:18:33;2.70;;;1.60;;
11653;SDS011;5883;48.818;9.114;2022-11-15T09:21:00;2.28;;;1.50;;
11653;SDS011;5883;48.818;9.114;2022-11-15T09:23:27;1.70;;;1.17;;
11653;SDS011;5883;48.818;9.114;2022-11-15T09:25:58;1.65;;;1.27;;
11653;SDS011;5883;48.818;9.114;2022-11-15T09:28:24;2.20;;;1.30;;
11653;SDS011;5883;48.818;9.114;2022-11-15T09:30:51;1.50;;;1.20;;
11653;SDS011;5883;48.818;9.114;2022-11-15T09:33:19;2.25;;;1.48;;
11653;SDS011;5883;48.818;9.114;2022-11-15T09:35:45;1.35;;;1.25;;
11653;SDS011;5883;48.818;9.114;2022-11-15T09:38:12;2.08;;;1.48;;
11653;SDS011;5883;48.818;9.114;2022-11-15T09:40:38;1.27;;;1.10;;
11653;SDS011;5883;48.818;9.114;2022-11-15T09:43:08;1.98;;;1.33;;
11653;SDS011;5883;48.818;9.114;2022-11-15T09:45:39;3.55;;;1.52;;
11653;SDS011;5883;48.818;9.114;2022-11-15T09:50:50;7.10;;;1.70;;
11653;SDS011;5883;48.818;9.114;2022-11-15T09:53:21;2.60;;;1.73;;
11653;SDS011;5883;48.818;9.114;2022-11-15T09:55:51;5.05;;;1.77;;
11653;SDS011;5883;48.818;9.114;2022-11-15T09:58:22;3.03;;;1.92;;
11653;SDS011;5883;48.818;9.114;2022-11-15T10:00:50;5.13;;;1.92;;
11653;SDS011;5883;48.818;9.114;2022-11-15T10:03:20;2.53;;;1.73;;
11653;SDS011;5883;48.818;9.114;2022-11-15T10:05:49;6.20;;;1.58;;
11653;SDS011;5883;48.818;9.114;2022-11-15T10:08:30;5.93;;;1.95;;
11653;SDS011;5883;48.818;9.114;2022-11-15T10:10:58;3.22;;;1.52;;
11653;SDS011;5883;48.818;9.114;2022-11-15T10:13:26;3.40;;;1.48;;
11653;SDS011;5883;48.818;9.114;2022-11-15T10:15:56;3.97;;;1.60;;
11653;SDS011;5883;48.818;9.114;2022-11-15T10:18:24;4.25;;;1.42;;
11653;SDS011;5883;48.818;9.114;2022-11-15T10:20:55;3.80;;;1.90;;
11653;SDS011;5883;48.818;9.114;2022-11-15T10:23:23;4.32;;;2.08;;
11653;SDS011;5883;48.818;9.114;2022-11-15T10:25:52;5.85;;;1.90;;
11653;SDS011;5883;48.818;9.114;2022-11-15T10:28:21;4.55;;;1.88;;
11653;SDS011;5883;48.818;9.114;2022-11-15T10:30:49;4.47;;;1.70;;
11653;SDS011;5883;48.818;9.114;2022-11-15T10:33:22;7.47;;;1.90;;
11653;SDS011;5883;48.818;9.114;2022-11-15T10:35:58;4.95;;;2.28;;
11653;SDS011;5883;48.818;9.114;2022-11-15T10:38:49;5.10;;;2.35;;
11653;SDS011;5883;48.818;9.114;2022-11-15T10:41:20;7.72;;;2.30;;
11653;SDS011;5883;48.818;9.114;2022-11-15T10:44:01;3.55;;;1.83;;
11653;SDS011;5883;48.818;9.114;2022-11-15T10:46:27;6.70;;;1.80;;
11653;SDS011;5883;48.818;9.114;2022-11-15T10:48:55;4.35;;;1.92;;
11653;SDS011;5883;48.818;9.114;2022-11-15T10:51:39;7.43;;;1.83;;
11653;SDS011;5883;48.818;9.114;2022-11-15T10:54:07;10.75;;;2.53;;
11653;SDS011;5883;48.818;9.114;2022-11-15T10:56:37;5.80;;;1.92;;
11653;SDS011;5883;48.818;9.114;2022-11-15T10:59:09;4.80;;;1.88;;
11653;SDS011;5883;48.818;9.114;2022-11-15T11:01:45;4.28;;;1.80;;
11653;SDS011;5883;48.818;9.114;2022-11-15T11:04:12;4.18;;;1.92;;
11653;SDS011;5883;48.818;9.114;2022-11-15T11:06:45;4.80;;;2.25;;
11653;SDS011;5883;48.818;9.114;2022-11-15T11:09:20;2.22;;;1.70;;
11653;SDS011;5883;48.818;9.114;2022-11-15T11:11:49;4.35;;;2.10;;
11653;SDS011;5883;48.818;9.114;2022-11-15T11:14:19;3.85;;;2.00;;
11653;SDS011;5883;48.818;9.114;2022-11-15T11:16:47;10.90;;;2.45;;
11653;SDS011;5883;48.818;9.114;2022-11-15T11:19:18;5.07;;;2.30;;
11653;SDS011;5883;48.818;9.114;2022-11-15T11:21:46;4.80;;;2.80;;
11653;SDS011;5883;48.818;9.114;2022-11-15T11:24:17;4.88;;;2.33;;
11653;SDS011;5883;48.818;9.114;2022-11-15T11:26:54;4.18;;;2.28;;
11653;SDS011;5883;48.818;9.114;2022-11-15T11:29:27;5.78;;;2.47;;
11653;SDS011;5883;48.818;9.114;2022-11-15T11:32:00;7.15;;;3.05;;
11653;SDS011;5883;48.818;9.114;2022-11-15T11:34:32;7.30;;;3.17;;
11653;SDS011;5883;48.818;9.114;2022-11-15T11:37:01;8.30;;;3.25;;
11653;SDS011;5883;48.818;9.114;2022-11-15T11:39:31;7.88;;;3.35;;
11653;SDS011;5883;48.818;9.114;2022-11-15T11:42:06;10.40;;;4.25;;
11653;SDS011;5883;48.818;9.114;2022-11-15T11:44:38;6.40;;;3.95;;
11653;SDS011;5883;48.818;9.114;2022-11-15T11:47:09;9.77;;;4.15;;
11653;SDS011;5883;48.818;9.114;2022-11-15T11:49:38;5.88;;;3.42;;
11653;SDS011;5883;48.818;9.114;2022-11-15T11:52:08;12.98;;;3.90;;
11653;SDS011;5883;48.818;9.114;2022-11-15T11:54:42;9.15;;;3.45;;
11653;SDS011;5883;48.818;9.114;2022-11-15T11:57:16;6.20;;;3.20;;
11653;SDS011;5883;48.818;9.114;2022-11-15T11:59:44;5.97;;;2.90;;
11653;SDS011;5883;48.818;9.114;2022-11-15T12:02:15;5.93;;;3.03;;
11653;SDS011;5883;48.818;9.114;2022-11-15T12:04:43;5.35;;;3.25;;
11653;SDS011;5883;48.818;9.114;2022-11-15T12:07:12;6.35;;;3.38;;
11653;SDS011;5883;48.818;9.114;2022-11-15T12:09:41;8.15;;;2.63;;
11653;SDS011;5883;48.818;9.114;2022-11-15T12:12:11;6.47;;;2.88;;
11653;SDS011;5883;48.818;9.114;2022-11-15T12:14:44;7.32;;;2.80;;
11653;SDS011;5883;48.818;9.114;2022-11-15T12:17:12;4.57;;;2.33;;
11653;SDS011;5883;48.818;9.114;2022-11-15T12:19:38;8.18;;;2.60;;
11653;SDS011;5883;48.818;9.114;2022-11-15T12:22:10;4.82;;;2.20;;
11653;SDS011;5883;48.818;9.114;2022-11-15T12:24:39;3.90;;;1.67;;
11653;SDS011;5883;48.818;9.114;2022-11-15T12:27:13;3.85;;;1.80;;
11653;SDS011;5883;48.818;9.114;2022-11-15T12:29:43;3.95;;;1.90;;
11653;SDS011;5883;48.818;9.114;2022-11-15T12:32:16;4.93;;;1.80;;
11653;SDS011;5883;48.818;9.114;2022-11-15T12:34:45;3.10;;;2.15;;
11653;SDS011;5883;48.818;9.114;2022-11-15T12:40:04;4.15;;;2.40;;
11653;SDS011;5883;48.818;9.114;2022-11-15T12:42:35;2.25;;;1.90;;
11653;SDS011;5883;48.818;9.114;2022-11-15T12:45:22;6.25;;;2.25;;
11653;SDS011;5883;48.818;9.114;2022-11-15T12:47:51;3.00;;;2.15;;
11653;SDS011;5883;48.818;9.114;2022-11-15T12:50:22;2.47;;;2.10;;
11653;SDS011;5883;48.818;9.114;2022-11-15T12:53:28;6.55;;;2.30;;
11653;SDS011;5883;48.818;9.114;2022-11-15T12:56:08;5.03;;;2.30;;
11653;SDS011;5883;48.818;9.114;2022-11-15T12:58:41;3.97;;;2.38;;
11653;SDS011;5883;48.818;9.114;2022-11-15T13:01:08;9.20;;;2.90;;
11653;SDS011;5883;48.818;9.114;2022-11-15T13:03:43;6.55;;;2.50;;
11653;SDS011;5883;48.818;9.114;2022-11-15T13:06:37;6.07;;;2.90;;
11653;SDS011;5883;48.818;9.114;2022-11-15T13:09:49;6.68;;;3.10;;
11653;SDS011;5883;48.818;9.114;2022-11-15T13:11:53;6.13;;;3.00;;
11653;SDS011;5883;48.818;9.114;2022-11-15T13:14:39;7.45;;;3.17;;
11653;SDS011;5883;48.818;9.114;2022-11-15T13:17:12;9.32;;;3.13;;
11653;SDS011;5883;48.818;9.114;2022-11-15T13:19:42;6.05;;;3.30;;
11653;SDS011;5883;48.818;9.114;2022-11-15T13:22:09;9.27;;;3.35;;
11653;SDS011;5883;48.818;9.114;2022-11-15T13:24:55;7.55;;;3.40;;
11653;SDS011;5883;48.818;9.114;2022-11-15T13:27:21;5.88;;;3.17;;
11653;SDS011;5883;48.818;9.114;2022-11-15T13:29:48;5.20;;;3.35;;
11653;SDS011;5883;48.818;9.114;2022-11-15T13:32:15;6.03;;;3.67;;
11653;SDS011;5883;48.818;9.114;2022-11-15T13:34:42;7.00;;;3.40;;
11653;SDS011;5883;48.818;9.114;2022-11-15T13:37:12;11.07;;;3.58;;
11653;SDS011;5883;48.818;9.114;2022-11-15T13:39:54;6.28;;;3.13;;
11653;SDS011;5883;48.818;9.114;2022-11-15T13:42:21;9.25;;;3.33;;
11653;SDS011;5883;48.818;9.114;2022-11-15T13:44:55;5.25;;;3.10;;
11653;SDS011;5883;48.818;9.114;2022-11-15T13:47:22;3.95;;;3.10;;
11653;SDS011;5883;48.818;9.114;2022-11-15T13:49:51;7.45;;;4.28;;
11653;SDS011;5883;48.818;9.114;2022-11-15T13:52:18;6.60;;;3.33;;
11653;SDS011;5883;48.818;9.114;2022-11-15T13:54:46;4.72;;;2.78;;
11653;SDS011;5883;48.818;9.114;2022-11-15T13:57:16;4.95;;;1.85;;
11653;SDS011;5883;48.818;9.114;2022-11-15T13:59:45;4.50;;;2.25;;
11653;SDS011;5883;48.818;9.114;2022-11-15T14:02:13;3.15;;;2.10;;
11653;SDS011;5883;48.818;9.114;2022-11-15T14:04:45;2.53;;;1.83;;
11653;SDS011;5883;48.818;9.114;2022-11-15T14:07:16;2.60;;;2.13;;
11653;SDS011;5883;48.818;9.114;2022-11-15T14:09:44;3.10;;;2.17;;
11653;SDS011;5883;48.818;9.114;2022-11-15T14:12:29;3.45;;;1.70;;
11653;SDS011;5883;48.818;9.114;2022-11-15T14:14:57;3.67;;;2.13;;
11653;SDS011;5883;48.818;9.114;2022-11-15T14:17:34;1.98;;;1.50;;
11653;SDS011;5883;48.818;9.114;2022-11-15T14:20:01;4.03;;;2.28;;
11653;SDS011;5883;48.818;9.114;2022-11-15T14:22:28;4.00;;;2.08;;
11653;SDS011;5883;48.818;9.114;2022-11-15T14:25:05;3.05;;;2.03;;
11653;SDS011;5883;48.818;9.114;2022-11-15T14:27:34;4.72;;;2.47;;
11653;SDS011;5883;48.818;9.114;2022-11-15T14:30:04;5.25;;;2.95;;
11653;SDS011;5883;48.818;9.114;2022-11-15T14:32:37;5.90;;;2.60;;
11653;SDS011;5883;48.818;9.114;2022-11-15T14:35:09;4.32;;;2.70;;
11653;SDS011;5883;48.818;9.114;2022-11-15T14:37:38;4.55;;;2.83;;
11653;SDS011;5883;48.818;9.114;2022-11-15T14:40:05;6.80;;;3.08;;
11653;SDS011;5883;48.818;9.114;2022-11-15T14:42:31;8.93;;;3.35;;
11653;SDS011;5883;48.818;9.114;2022-11-15T14:44:59;3.28;;;2.42;;
11653;SDS011;5883;48.818;9.114;2022-11-15T14:47:26;3.17;;;2.45;;
11653;SDS011;5883;48.818;9.114;2022-11-15T14:49:52;2.88;;;2.50;;
11653;SDS011;5883;48.818;9.114;2022-11-15T14:52:23;3.90;;;2.75;;
11653;SDS011;5883;48.818;9.114;2022-11-15T14:54:50;4.72;;;2.42;;
11653;SDS011;5883;48.818;9.114;2022-11-15T14:57:17;6.95;;;2.47;;
11653;SDS011;5883;48.818;9.114;2022-11-15T14:59:43;5.32;;;2.67;;
11653;SDS011;5883;48.818;9.114;2022-11-15T15:02:14;4.32;;;2.30;;
11653;SDS011;5883;48.818;9.114;2022-11-15T15:04:41;4.03;;;2.53;;
11653;SDS011;5883;48.818;9.114;2022-11-15T15:07:08;4.82;;;2.78;;
11653;SDS011;5883;48.818;9.114;2022-11-15T15:09:34;5.30;;;2.70;;
11653;SDS011;5883;48.818;9.114;2022-11-15T15:12:01;2.67;;;2.20;;
11653;SDS011;5883;48.818;9.114;2022-11-15T15:14:28;4.07;;;2.72;;
11653;SDS011;5883;48.818;9.114;2022-11-15T15:16:54;4.65;;;2.90;;
11653;SDS011;5883;48.818;9.114;2022-11-15T15:19:22;4.05;;;2.50;;